createdAt,value
2023-02-06T00:01:48.632Z,-1.82
2023-02-06T00:08:15.383Z,-1.83
2023-02-06T00:10:44.460Z,-1.86
2023-02-06T00:13:13.448Z,-1.86
2023-02-06T00:15:41.954Z,-1.87
2023-02-06T00:18:10.367Z,-1.88
2023-02-06T00:20:39.591Z,-1.88
2023-02-06T00:23:08.516Z,-1.90
2023-02-06T00:25:36.991Z,-1.92
2023-02-06T00:28:05.645Z,-1.92
2023-02-06T00:30:34.670Z,-1.92
2023-02-06T00:33:03.049Z,-1.93
2023-02-06T00:35:31.141Z,-1.92
2023-02-06T00:38:00.315Z,-1.91
2023-02-06T00:40:29.483Z,-1.90
2023-02-06T00:42:58.126Z,-1.90
2023-02-06T00:45:26.214Z,-1.89
2023-02-06T00:47:55.118Z,-1.91
2023-02-06T00:50:23.340Z,-1.93
2023-02-06T00:52:51.542Z,-1.93
2023-02-06T00:55:19.617Z,-1.93
2023-02-06T00:57:47.662Z,-1.93
2023-02-06T01:00:16.087Z,-1.93
2023-02-06T01:02:44.536Z,-1.93
2023-02-06T01:05:12.823Z,-1.93
2023-02-06T01:07:42.656Z,-1.94
2023-02-06T01:10:11.013Z,-1.95
2023-02-06T01:12:41.043Z,-1.93
2023-02-06T01:15:10.665Z,-1.92
2023-02-06T01:17:39.487Z,-1.92
2023-02-06T01:20:09.871Z,-1.91
2023-02-06T01:22:38.341Z,-1.90
2023-02-06T01:25:06.929Z,-1.89
2023-02-06T01:27:37.003Z,-1.88
2023-02-06T01:30:06.509Z,-1.87
2023-02-06T01:32:38.343Z,-1.86
2023-02-06T01:35:07.354Z,-1.84
2023-02-06T01:37:38.293Z,-1.85
2023-02-06T01:40:13.085Z,-1.86
2023-02-06T01:42:42.354Z,-1.87
2023-02-06T01:45:25.922Z,-1.89
2023-02-06T01:48:03.485Z,-1.89
2023-02-06T01:50:31.958Z,-1.90
2023-02-06T01:53:00.191Z,-1.91
2023-02-06T01:55:28.397Z,-1.92
2023-02-06T01:57:56.488Z,-1.93
2023-02-06T02:00:24.653Z,-1.92
2023-02-06T02:02:52.833Z,-1.94
2023-02-06T02:05:22.910Z,-1.96
2023-02-06T02:08:01.167Z,-1.96
2023-02-06T02:10:30.248Z,-1.97
2023-02-06T02:13:00.832Z,-1.98
2023-02-06T02:15:40.177Z,-1.98
2023-02-06T02:18:16.754Z,-1.99
2023-02-06T02:20:56.059Z,-1.99
2023-02-06T02:24:02.705Z,-2.00
2023-02-06T02:26:40.056Z,-2.00
2023-02-06T02:29:29.380Z,-2.00
2023-02-06T02:32:04.048Z,-2.00
2023-02-06T02:35:00.039Z,-2.01
2023-02-06T02:37:40.832Z,-2.02
2023-02-06T02:40:40.087Z,-2.04
2023-02-06T02:43:30.122Z,-2.05
2023-02-06T02:46:17.674Z,-2.06
2023-02-06T02:48:47.088Z,-2.07
2023-02-06T02:51:15.359Z,-2.07
2023-02-06T02:53:43.574Z,-2.07
2023-02-06T02:56:21.427Z,-2.08
2023-02-06T02:58:55.618Z,-2.08
2023-02-06T03:01:28.150Z,-2.08
2023-02-06T03:03:56.565Z,-2.09
2023-02-06T03:06:30.222Z,-2.10
2023-02-06T03:09:26.510Z,-2.13
2023-02-06T03:12:10.663Z,-2.15
2023-02-06T03:14:46.463Z,-2.16
2023-02-06T03:17:16.656Z,-2.16
2023-02-06T03:19:48.637Z,-2.16
2023-02-06T03:22:16.783Z,-2.17
2023-02-06T03:24:44.829Z,-2.17
2023-02-06T03:27:14.986Z,-2.16
2023-02-06T03:29:43.532Z,-2.15
2023-02-06T03:32:17.572Z,-2.15
2023-02-06T03:35:05.804Z,-2.16
2023-02-06T03:37:34.563Z,-2.17
2023-02-06T03:40:22.568Z,-2.17
2023-02-06T03:42:53.035Z,-2.15
2023-02-06T03:45:36.495Z,-2.14
2023-02-06T03:48:09.238Z,-2.13
2023-02-06T03:50:38.228Z,-2.13
2023-02-06T03:53:07.329Z,-2.13
2023-02-06T03:55:36.397Z,-2.12
2023-02-06T03:58:09.335Z,-2.12
2023-02-06T04:00:37.519Z,-2.09
2023-02-06T04:03:05.662Z,-2.09
2023-02-06T04:05:34.309Z,-2.11
2023-02-06T04:08:02.851Z,-2.11
2023-02-06T04:10:32.334Z,-2.12
2023-02-06T04:13:01.622Z,-2.14
2023-02-06T04:15:30.217Z,-2.14
2023-02-06T04:18:00.940Z,-2.14
2023-02-06T04:20:29.941Z,-2.15
2023-02-06T04:22:58.932Z,-2.15
2023-02-06T04:25:27.138Z,-2.14
2023-02-06T04:27:56.134Z,-2.13
2023-02-06T04:30:24.362Z,-2.15
2023-02-06T04:32:53.159Z,-2.16
2023-02-06T04:35:21.301Z,-2.17
2023-02-06T04:37:49.736Z,-2.16
2023-02-06T04:40:18.192Z,-2.16
2023-02-06T04:42:47.236Z,-2.18
2023-02-06T04:45:15.554Z,-2.19
2023-02-06T04:47:43.716Z,-2.20
2023-02-06T04:50:12.541Z,-2.20
2023-02-06T04:52:40.806Z,-2.18
2023-02-06T04:55:09.213Z,-2.18
2023-02-06T04:57:38.057Z,-2.18
2023-02-06T05:00:06.979Z,-2.18
2023-02-06T05:02:39.781Z,-2.19
2023-02-06T05:05:08.783Z,-2.22
2023-02-06T05:07:38.576Z,-2.23
2023-02-06T05:10:09.073Z,-2.23
2023-02-06T05:12:39.471Z,-2.22
2023-02-06T05:15:08.170Z,-2.21
2023-02-06T05:17:36.566Z,-2.21
2023-02-06T05:20:05.623Z,-2.22
2023-02-06T05:22:33.904Z,-2.21
2023-02-06T05:25:02.045Z,-2.21
2023-02-06T05:27:30.493Z,-2.22
2023-02-06T05:29:58.618Z,-2.23
2023-02-06T05:32:26.708Z,-2.27
2023-02-06T05:34:54.970Z,-2.30
2023-02-06T05:37:23.099Z,-2.32
2023-02-06T05:39:51.306Z,-2.34
2023-02-06T05:42:19.545Z,-2.35
2023-02-06T05:44:47.709Z,-2.35
2023-02-06T05:47:15.837Z,-2.38
2023-02-06T05:49:44.291Z,-2.40
2023-02-06T05:52:12.402Z,-2.41
2023-02-06T05:54:41.139Z,-2.41
2023-02-06T05:57:09.431Z,-2.41
2023-02-06T05:59:37.691Z,-2.42
2023-02-06T06:02:06.132Z,-2.41
2023-02-06T06:04:34.505Z,-2.41
2023-02-06T06:07:02.663Z,-2.40
2023-02-06T06:09:31.118Z,-2.41
2023-02-06T06:12:02.056Z,-2.40
2023-02-06T06:14:31.341Z,-2.40
2023-02-06T06:17:00.366Z,-2.41
2023-02-06T06:19:28.551Z,-2.41
2023-02-06T06:21:58.236Z,-2.39
2023-02-06T06:24:26.712Z,-2.38
2023-02-06T06:26:56.512Z,-2.37
2023-02-06T06:29:25.404Z,-2.37
2023-02-06T06:31:53.789Z,-2.37
2023-02-06T06:34:22.494Z,-2.35
2023-02-06T06:36:50.874Z,-2.34
2023-02-06T10:37:52.001Z,-1.28
2023-02-06T10:40:26.215Z,-1.40
2023-02-06T10:43:19.242Z,-1.43
2023-02-06T10:46:05.908Z,-1.43
2023-02-06T10:48:44.589Z,-1.38
2023-02-06T10:51:22.529Z,-1.37
2023-02-06T10:53:56.489Z,-1.36
2023-02-06T10:56:49.684Z,-1.33
2023-02-06T10:59:22.432Z,-1.33
2023-02-06T11:02:05.889Z,-1.32
2023-02-06T11:04:39.671Z,-1.34
2023-02-06T11:07:12.842Z,-1.37
2023-02-06T11:09:41.285Z,-1.39
2023-02-06T11:12:24.479Z,-1.43
2023-02-06T11:14:52.762Z,-1.47
2023-02-06T11:17:22.727Z,-1.51
2023-02-06T11:19:51.990Z,-1.51
2023-02-06T11:22:28.668Z,-1.54
2023-02-06T11:25:08.084Z,-1.54
2023-02-06T11:27:36.563Z,-1.56
2023-02-06T11:30:29.645Z,-1.58
2023-02-06T11:33:04.699Z,-1.58
2023-02-06T11:35:36.633Z,-1.56
2023-02-06T11:38:17.326Z,-1.54
2023-02-06T11:41:00.859Z,-1.54
2023-02-06T11:43:33.955Z,-1.59
2023-02-06T11:46:08.449Z,-1.62
2023-02-06T11:48:37.788Z,-1.58
2023-02-06T11:51:06.497Z,-1.53
2023-02-06T11:53:35.565Z,-1.52
2023-02-06T11:56:17.945Z,-1.53
2023-02-06T11:58:47.774Z,-1.52
2023-02-06T12:01:20.598Z,-1.52
2023-02-06T12:03:55.315Z,-1.49
2023-02-06T12:06:36.205Z,-1.51
2023-02-06T12:09:09.780Z,-1.54
2023-02-06T12:12:08.372Z,-1.55
2023-02-06T12:14:40.684Z,-1.55
2023-02-06T12:17:32.095Z,-1.52
2023-02-06T12:20:06.463Z,-1.45
2023-02-06T12:22:39.436Z,-1.39
2023-02-06T12:25:25.450Z,-1.34
2023-02-06T12:27:57.136Z,-1.29
2023-02-06T12:30:48.257Z,-1.27
2023-02-06T12:33:40.972Z,-1.28
2023-02-06T12:36:17.571Z,-1.28
2023-02-06T12:38:57.190Z,-1.28
2023-02-06T12:41:47.492Z,-1.26
2023-02-06T12:44:42.280Z,-1.25
2023-02-06T12:47:25.692Z,-1.26
2023-02-06T12:50:04.151Z,-1.23
2023-02-06T12:52:45.821Z,-1.17
2023-02-06T12:55:28.637Z,-1.12
2023-02-06T12:57:58.185Z,-1.09
2023-02-06T13:00:55.274Z,-1.17
2023-02-06T13:03:43.941Z,-1.26
2023-02-06T13:06:22.280Z,-1.33
2023-02-06T13:08:57.634Z,-1.39
2023-02-06T13:11:35.146Z,-1.38
2023-02-06T13:14:18.369Z,-1.38
2023-02-06T13:17:11.920Z,-1.38
2023-02-06T13:19:40.709Z,-1.35
2023-02-06T13:22:10.943Z,-1.36
2023-02-06T13:24:46.427Z,-1.40
2023-02-06T13:27:24.958Z,-1.46
2023-02-06T13:29:54.236Z,-1.50
2023-02-06T13:32:22.862Z,-1.53
2023-02-06T13:34:53.935Z,-1.57
2023-02-06T13:37:35.150Z,-1.57
2023-02-06T13:40:26.730Z,-1.57
2023-02-06T13:43:14.015Z,-1.60
2023-02-06T13:45:49.433Z,-1.62
2023-02-06T13:48:41.137Z,-1.64
2023-02-06T13:51:17.046Z,-1.65
2023-02-06T13:54:24.516Z,-1.67
2023-02-06T13:57:23.293Z,-1.74
2023-02-06T13:59:58.615Z,-1.77
2023-02-06T14:02:34.147Z,-1.82
2023-02-06T14:05:04.249Z,-1.83
2023-02-06T14:07:32.416Z,-1.83
2023-02-06T14:10:24.030Z,-1.85
2023-02-06T14:13:28.705Z,-1.85
2023-02-06T14:16:15.803Z,-1.87
2023-02-06T14:18:49.633Z,-1.90
2023-02-06T14:21:39.356Z,-1.92
2023-02-06T14:24:31.769Z,-1.95
2023-02-06T14:27:03.375Z,-1.98
2023-02-06T14:30:09.076Z,-1.99
2023-02-06T14:32:47.859Z,-1.99
2023-02-06T14:35:20.644Z,-2.00
2023-02-06T14:38:10.037Z,-2.03
2023-02-06T14:40:42.671Z,-2.07
2023-02-06T14:43:15.147Z,-2.10
2023-02-06T14:46:04.169Z,-2.12
2023-02-06T14:48:52.401Z,-2.13
2023-02-06T14:51:26.842Z,-2.14
2023-02-06T14:53:57.690Z,-2.18
2023-02-06T14:56:36.835Z,-2.21
2023-02-06T14:59:23.585Z,-2.23
2023-02-06T15:01:53.465Z,-2.24
2023-02-06T15:04:23.048Z,-2.24
2023-02-06T15:06:53.450Z,-2.26
2023-02-06T15:09:27.598Z,-2.27
2023-02-06T15:12:26.826Z,-2.28
2023-02-06T15:15:05.444Z,-2.29
2023-02-06T15:17:34.601Z,-2.29
2023-02-06T15:20:24.281Z,-2.28
2023-02-06T15:22:54.289Z,-2.29
2023-02-06T15:25:32.469Z,-2.30
2023-02-06T15:28:07.810Z,-2.31
2023-02-06T15:30:37.632Z,-2.32
2023-02-06T15:33:09.201Z,-2.32
2023-02-06T15:35:41.235Z,-2.33
2023-02-06T15:38:13.845Z,-2.36
2023-02-06T15:40:46.435Z,-2.38
2023-02-06T15:43:24.667Z,-2.39
2023-02-06T15:45:57.669Z,-2.40
2023-02-06T15:48:28.984Z,-2.42
2023-02-06T15:50:59.650Z,-2.45
2023-02-06T15:53:48.332Z,-2.49
2023-02-06T15:56:21.093Z,-2.50
2023-02-06T15:58:50.050Z,-2.50
2023-02-06T16:01:19.781Z,-2.50
2023-02-06T16:03:53.390Z,-2.50
2023-02-06T16:06:22.367Z,-2.50
2023-02-06T16:08:54.593Z,-2.52
2023-02-06T19:30:19.443Z,-3.39
2023-02-06T19:32:48.831Z,-3.41
2023-02-06T19:35:17.416Z,-3.46
2023-02-06T19:37:45.687Z,-3.50
2023-02-06T19:40:14.199Z,-3.54
2023-02-06T19:42:42.745Z,-3.58
2023-02-06T19:45:11.241Z,-3.62
2023-02-06T19:47:41.052Z,-3.64
2023-02-06T19:50:10.829Z,-3.67
2023-02-06T19:52:40.529Z,-3.69
2023-02-06T19:55:08.929Z,-3.71
2023-02-06T19:57:39.599Z,-3.74
2023-02-06T20:00:08.574Z,-3.78
2023-02-06T20:02:39.191Z,-3.80
2023-02-06T20:05:07.942Z,-3.82
2023-02-06T20:07:36.381Z,-3.84
2023-02-06T20:10:05.447Z,-3.87
2023-02-06T20:12:36.274Z,-3.91
2023-02-06T20:15:04.651Z,-3.95
2023-02-06T20:17:32.952Z,-3.99
2023-02-06T20:20:01.534Z,-4.00
2023-02-06T20:22:30.189Z,-4.00
2023-02-06T20:24:59.066Z,-4.01
2023-02-06T20:27:27.717Z,-4.01
2023-02-06T20:29:56.148Z,-4.01
2023-02-06T20:32:24.574Z,-4.00
2023-02-06T20:34:52.873Z,-3.99
2023-02-06T20:37:21.581Z,-4.00
2023-02-06T20:39:49.888Z,-4.01
2023-02-06T20:42:19.620Z,-4.02
2023-02-06T20:44:49.508Z,-4.05
2023-02-06T20:47:17.947Z,-4.07
2023-02-06T20:49:46.803Z,-4.08
2023-02-06T20:52:15.089Z,-4.10
2023-02-06T20:54:43.830Z,-4.12
2023-02-06T20:57:12.196Z,-4.13
2023-02-06T20:59:40.643Z,-4.14
2023-02-06T21:02:10.719Z,-4.13
2023-02-06T21:04:39.386Z,-4.14
2023-02-06T21:07:07.703Z,-4.14
2023-02-06T21:09:36.624Z,-4.14
2023-02-06T21:12:05.185Z,-4.14
2023-02-06T21:14:35.332Z,-4.14
2023-02-06T21:17:03.549Z,-4.14
2023-02-06T21:19:31.767Z,-4.14
2023-02-06T21:22:00.907Z,-4.13
2023-02-06T21:24:29.597Z,-4.11
2023-02-06T21:26:57.852Z,-4.09
2023-02-06T21:29:26.233Z,-4.07
2023-02-06T21:32:07.449Z,-4.05
2023-02-06T21:34:41.190Z,-4.04
2023-02-06T21:37:09.667Z,-4.02
2023-02-06T21:39:38.983Z,-4.02
2023-02-06T21:42:10.770Z,-4.01
2023-02-06T21:44:39.520Z,-4.00
2023-02-06T21:47:10.044Z,-3.99
2023-02-06T21:49:40.418Z,-4.00
2023-02-06T21:52:08.852Z,-4.00
2023-02-06T21:54:38.089Z,-3.99
2023-02-06T21:57:06.509Z,-3.99
2023-02-06T21:59:36.650Z,-3.97
2023-02-06T22:02:05.223Z,-3.97
2023-02-06T22:04:33.645Z,-3.95
2023-02-06T22:07:02.211Z,-3.93
2023-02-06T22:09:30.588Z,-3.94
2023-02-06T22:11:58.845Z,-3.96
2023-02-06T22:14:28.992Z,-4.00
2023-02-06T22:17:00.769Z,-4.02
2023-02-06T22:19:29.461Z,-4.03
2023-02-06T22:22:00.954Z,-4.02
2023-02-06T22:24:29.976Z,-4.01
2023-02-06T22:26:58.166Z,-4.00
2023-02-06T22:29:26.345Z,-4.00
2023-02-06T22:31:54.799Z,-3.99
2023-02-06T22:34:23.081Z,-3.96
2023-02-06T22:36:54.390Z,-3.96
2023-02-06T22:39:22.736Z,-3.97
2023-02-06T22:41:51.294Z,-3.99
2023-02-06T22:44:20.336Z,-4.02
2023-02-06T22:46:52.440Z,-4.06
2023-02-06T22:49:21.713Z,-4.08
2023-02-06T22:51:50.440Z,-4.08
2023-02-06T22:54:18.965Z,-4.09
2023-02-06T22:56:47.084Z,-4.08
2023-02-06T22:59:17.562Z,-4.08
2023-02-06T23:01:55.382Z,-4.07
2023-02-06T23:04:28.819Z,-4.09
2023-02-06T23:06:57.886Z,-4.11
2023-02-06T23:09:28.389Z,-4.13
2023-02-06T23:12:01.361Z,-4.14
2023-02-06T23:14:31.768Z,-4.13
2023-02-06T23:17:00.385Z,-4.14
2023-02-06T23:19:29.303Z,-4.13
2023-02-06T23:21:57.649Z,-4.12
2023-02-06T23:24:25.881Z,-4.12
2023-02-06T23:26:54.544Z,-4.13
2023-02-06T23:29:23.506Z,-4.16
2023-02-06T23:31:51.856Z,-4.16
2023-02-06T23:34:23.739Z,-4.15
2023-02-06T23:36:56.085Z,-4.14
2023-02-06T23:39:24.498Z,-4.13
2023-02-06T23:41:53.176Z,-4.12
2023-02-06T23:44:21.390Z,-4.11
2023-02-06T23:46:49.589Z,-4.09
2023-02-06T23:49:18.781Z,-4.09
2023-02-06T23:51:47.360Z,-4.09
2023-02-06T23:54:15.705Z,-4.08
2023-02-06T23:56:46.452Z,-4.08
2023-02-06T23:59:14.736Z,-4.08
